sensor_id;sensor_type;location;lat;lon;timestamp;P1;durP1;ratioP1;P2;durP2;ratioP2
63959;SDS011;50136;51.374;0.096;2023-01-10T00:05:29;32.33;;;7.65;;
63959;SDS011;50136;51.374;0.096;2023-01-10T00:15:33;19.05;;;4.57;;
63959;SDS011;50136;51.374;0.096;2023-01-10T00:25:36;25.67;;;5.60;;
63959;SDS011;50136;51.374;0.096;2023-01-10T00:35:39;16.77;;;3.35;;
63959;SDS011;50136;51.374;0.096;2023-01-10T00:45:43;14.85;;;3.10;;
63959;SDS011;50136;51.374;0.096;2023-01-10T00:55:46;22.73;;;5.28;;
63959;SDS011;50136;51.374;0.096;2023-01-10T01:05:49;22.20;;;3.55;;
63959;SDS011;50136;51.374;0.096;2023-01-10T01:15:52;23.83;;;3.60;;
63959;SDS011;50136;51.374;0.096;2023-01-10T01:25:58;23.13;;;4.45;;
63959;SDS011;50136;51.374;0.096;2023-01-10T01:36:01;25.75;;;4.70;;
63959;SDS011;50136;51.374;0.096;2023-01-10T01:46:07;24.60;;;3.85;;
63959;SDS011;50136;51.374;0.096;2023-01-10T01:56:12;21.05;;;4.55;;
63959;SDS011;50136;51.374;0.096;2023-01-10T02:06:17;18.92;;;4.00;;
63959;SDS011;50136;51.374;0.096;2023-01-10T02:16:22;27.02;;;5.18;;
63959;SDS011;50136;51.374;0.096;2023-01-10T02:37:03;12.25;;;3.53;;
63959;SDS011;50136;51.374;0.096;2023-01-10T02:47:13;17.50;;;4.05;;
63959;SDS011;50136;51.374;0.096;2023-01-10T02:57:21;25.42;;;5.20;;
63959;SDS011;50136;51.374;0.096;2023-01-10T03:07:36;19.17;;;5.10;;
63959;SDS011;50136;51.374;0.096;2023-01-10T03:17:46;28.95;;;5.57;;
63959;SDS011;50136;51.374;0.096;2023-01-10T03:27:54;21.55;;;3.97;;
63959;SDS011;50136;51.374;0.096;2023-01-10T03:38:01;24.13;;;4.57;;
63959;SDS011;50136;51.374;0.096;2023-01-10T03:48:06;14.23;;;3.95;;
63959;SDS011;50136;51.374;0.096;2023-01-10T03:58:12;21.00;;;4.25;;
63959;SDS011;50136;51.374;0.096;2023-01-10T04:08:14;14.82;;;3.30;;
63959;SDS011;50136;51.374;0.096;2023-01-10T04:18:18;15.43;;;3.80;;
63959;SDS011;50136;51.374;0.096;2023-01-10T04:28:20;15.32;;;3.88;;
63959;SDS011;50136;51.374;0.096;2023-01-10T04:38:26;18.50;;;3.35;;
63959;SDS011;50136;51.374;0.096;2023-01-10T04:48:28;22.45;;;4.00;;
63959;SDS011;50136;51.374;0.096;2023-01-10T04:58:32;29.02;;;5.18;;
63959;SDS011;50136;51.374;0.096;2023-01-10T05:08:35;27.85;;;4.18;;
63959;SDS011;50136;51.374;0.096;2023-01-10T05:18:38;15.35;;;3.60;;
63959;SDS011;50136;51.374;0.096;2023-01-10T05:28:40;20.67;;;4.72;;
63959;SDS011;50136;51.374;0.096;2023-01-10T05:38:44;27.80;;;4.85;;
63959;SDS011;50136;51.374;0.096;2023-01-10T05:48:46;29.60;;;4.90;;
63959;SDS011;50136;51.374;0.096;2023-01-10T05:58:49;28.50;;;4.93;;
63959;SDS011;50136;51.374;0.096;2023-01-10T06:09:05;37.63;;;6.90;;
63959;SDS011;50136;51.374;0.096;2023-01-10T06:19:09;22.90;;;3.92;;
63959;SDS011;50136;51.374;0.096;2023-01-10T06:29:11;22.23;;;5.93;;
63959;SDS011;50136;51.374;0.096;2023-01-10T06:39:14;26.48;;;3.92;;
63959;SDS011;50136;51.374;0.096;2023-01-10T06:49:16;22.55;;;5.95;;
63959;SDS011;50136;51.374;0.096;2023-01-10T06:59:19;24.35;;;4.35;;
63959;SDS011;50136;51.374;0.096;2023-01-10T07:09:21;29.73;;;5.68;;
63959;SDS011;50136;51.374;0.096;2023-01-10T07:19:25;25.25;;;4.45;;
63959;SDS011;50136;51.374;0.096;2023-01-10T07:29:27;23.35;;;4.68;;
63959;SDS011;50136;51.374;0.096;2023-01-10T07:39:30;25.23;;;4.72;;
63959;SDS011;50136;51.374;0.096;2023-01-10T07:49:32;19.92;;;4.00;;
63959;SDS011;50136;51.374;0.096;2023-01-10T07:59:35;23.23;;;5.05;;
63959;SDS011;50136;51.374;0.096;2023-01-10T08:09:37;20.38;;;4.38;;
63959;SDS011;50136;51.374;0.096;2023-01-10T08:19:41;23.20;;;3.45;;
63959;SDS011;50136;51.374;0.096;2023-01-10T08:29:43;17.15;;;3.13;;
63959;SDS011;50136;51.374;0.096;2023-01-10T08:39:46;20.23;;;3.78;;
63959;SDS011;50136;51.374;0.096;2023-01-10T08:49:48;13.10;;;3.58;;
63959;SDS011;50136;51.374;0.096;2023-01-10T08:59:51;16.23;;;2.42;;
63959;SDS011;50136;51.374;0.096;2023-01-10T09:09:53;7.63;;;2.83;;
63959;SDS011;50136;51.374;0.096;2023-01-10T09:19:57;9.88;;;1.88;;
63959;SDS011;50136;51.374;0.096;2023-01-10T09:29:59;7.72;;;1.48;;
63959;SDS011;50136;51.374;0.096;2023-01-10T09:40:02;6.28;;;1.48;;
63959;SDS011;50136;51.374;0.096;2023-01-10T09:50:09;1.80;;;0.82;;
63959;SDS011;50136;51.374;0.096;2023-01-10T10:00:20;4.55;;;0.75;;
63959;SDS011;50136;51.374;0.096;2023-01-10T10:10:30;1.50;;;0.50;;
63959;SDS011;50136;51.374;0.096;2023-01-10T10:20:43;1.83;;;0.55;;
63959;SDS011;50136;51.374;0.096;2023-01-10T10:30:54;0.50;;;0.50;;
63959;SDS011;50136;51.374;0.096;2023-01-10T10:41:02;0.73;;;0.40;;
63959;SDS011;50136;51.374;0.096;2023-01-10T10:51:11;0.70;;;0.50;;
63959;SDS011;50136;51.374;0.096;2023-01-10T11:01:19;1.23;;;0.50;;
63959;SDS011;50136;51.374;0.096;2023-01-10T11:11:27;1.58;;;0.80;;
63959;SDS011;50136;51.374;0.096;2023-01-10T11:21:33;1.92;;;0.57;;
63959;SDS011;50136;51.374;0.096;2023-01-10T11:31:35;1.35;;;0.55;;
63959;SDS011;50136;51.374;0.096;2023-01-10T11:41:39;0.75;;;0.50;;
63959;SDS011;50136;51.374;0.096;2023-01-10T11:51:43;1.05;;;0.73;;
63959;SDS011;50136;51.374;0.096;2023-01-10T12:01:52;2.00;;;0.85;;
63959;SDS011;50136;51.374;0.096;2023-01-10T12:12:00;9.65;;;5.30;;
63959;SDS011;50136;51.374;0.096;2023-01-10T12:22:04;1.20;;;0.50;;
63959;SDS011;50136;51.374;0.096;2023-01-10T12:32:10;1.02;;;0.75;;
63959;SDS011;50136;51.374;0.096;2023-01-10T12:42:23;5.95;;;0.80;;
63959;SDS011;50136;51.374;0.096;2023-01-10T12:52:36;3.92;;;1.48;;
63959;SDS011;50136;51.374;0.096;2023-01-10T13:02:43;11.35;;;2.58;;
63959;SDS011;50136;51.374;0.096;2023-01-10T13:12:49;20.38;;;2.95;;
63959;SDS011;50136;51.374;0.096;2023-01-10T13:22:57;18.30;;;5.45;;
63959;SDS011;50136;51.374;0.096;2023-01-10T13:33:02;23.85;;;5.18;;
63959;SDS011;50136;51.374;0.096;2023-01-10T13:43:28;38.38;;;7.95;;
63959;SDS011;50136;51.374;0.096;2023-01-10T13:53:50;66.95;;;11.48;;
63959;SDS011;50136;51.374;0.096;2023-01-10T14:03:57;55.50;;;9.50;;
63959;SDS011;50136;51.374;0.096;2023-01-10T14:14:00;47.95;;;9.15;;
63959;SDS011;50136;51.374;0.096;2023-01-10T14:24:04;65.55;;;12.43;;
63959;SDS011;50136;51.374;0.096;2023-01-10T14:34:17;45.13;;;8.07;;
63959;SDS011;50136;51.374;0.096;2023-01-10T14:44:25;37.25;;;8.75;;
63959;SDS011;50136;51.374;0.096;2023-01-10T14:54:31;56.53;;;9.40;;
63959;SDS011;50136;51.374;0.096;2023-01-10T15:04:34;50.17;;;9.82;;
63959;SDS011;50136;51.374;0.096;2023-01-10T15:14:37;30.10;;;7.35;;
63959;SDS011;50136;51.374;0.096;2023-01-10T15:24:40;31.92;;;6.15;;
63959;SDS011;50136;51.374;0.096;2023-01-10T15:34:45;25.75;;;5.18;;
63959;SDS011;50136;51.374;0.096;2023-01-10T15:44:51;29.63;;;6.50;;
63959;SDS011;50136;51.374;0.096;2023-01-10T15:54:53;40.90;;;7.03;;
63959;SDS011;50136;51.374;0.096;2023-01-10T16:04:57;35.30;;;8.48;;
63959;SDS011;50136;51.374;0.096;2023-01-10T16:25:13;49.95;;;8.25;;
63959;SDS011;50136;51.374;0.096;2023-01-10T16:35:17;39.40;;;9.40;;
63959;SDS011;50136;51.374;0.096;2023-01-10T16:45:20;38.28;;;8.13;;
63959;SDS011;50136;51.374;0.096;2023-01-10T16:55:23;51.55;;;10.27;;
63959;SDS011;50136;51.374;0.096;2023-01-10T17:05:31;56.35;;;9.25;;
63959;SDS011;50136;51.374;0.096;2023-01-10T17:15:35;38.72;;;9.30;;
63959;SDS011;50136;51.374;0.096;2023-01-10T17:25:38;23.92;;;4.53;;
63959;SDS011;50136;51.374;0.096;2023-01-10T17:35:40;25.90;;;5.10;;
63959;SDS011;50136;51.374;0.096;2023-01-10T17:45:45;31.20;;;5.22;;
63959;SDS011;50136;51.374;0.096;2023-01-10T17:55:48;17.88;;;4.38;;
63959;SDS011;50136;51.374;0.096;2023-01-10T18:05:53;14.50;;;2.83;;
63959;SDS011;50136;51.374;0.096;2023-01-10T18:15:56;12.35;;;2.90;;
63959;SDS011;50136;51.374;0.096;2023-01-10T18:26:00;10.00;;;1.45;;
63959;SDS011;50136;51.374;0.096;2023-01-10T18:36:04;7.05;;;1.58;;
63959;SDS011;50136;51.374;0.096;2023-01-10T18:46:09;5.03;;;1.23;;
63959;SDS011;50136;51.374;0.096;2023-01-10T18:56:13;10.60;;;1.63;;
63959;SDS011;50136;51.374;0.096;2023-01-10T19:06:17;7.95;;;1.70;;
63959;SDS011;50136;51.374;0.096;2023-01-10T19:16:26;9.27;;;2.33;;
63959;SDS011;50136;51.374;0.096;2023-01-10T19:26:38;6.05;;;1.60;;
63959;SDS011;50136;51.374;0.096;2023-01-10T19:36:49;8.73;;;2.00;;
63959;SDS011;50136;51.374;0.096;2023-01-10T19:57:21;9.00;;;2.15;;
63959;SDS011;50136;51.374;0.096;2023-01-10T20:07:32;8.52;;;1.80;;
63959;SDS011;50136;51.374;0.096;2023-01-10T20:17:35;10.20;;;2.28;;
63959;SDS011;50136;51.374;0.096;2023-01-10T20:27:45;3.03;;;1.00;;
63959;SDS011;50136;51.374;0.096;2023-01-10T20:37:48;6.18;;;2.38;;
63959;SDS011;50136;51.374;0.096;2023-01-10T20:47:56;8.30;;;3.70;;
63959;SDS011;50136;51.374;0.096;2023-01-10T20:58:09;5.13;;;0.80;;
63959;SDS011;50136;51.374;0.096;2023-01-10T21:08:22;5.57;;;1.17;;
63959;SDS011;50136;51.374;0.096;2023-01-10T21:18:32;2.80;;;0.98;;
63959;SDS011;50136;51.374;0.096;2023-01-10T21:28:39;1.95;;;1.27;;
63959;SDS011;50136;51.374;0.096;2023-01-10T21:38:59;5.07;;;0.95;;
63959;SDS011;50136;51.374;0.096;2023-01-10T21:49:16;4.60;;;1.15;;
63959;SDS011;50136;51.374;0.096;2023-01-10T21:59:43;5.85;;;1.27;;
63959;SDS011;50136;51.374;0.096;2023-01-10T22:09:49;4.43;;;1.40;;
63959;SDS011;50136;51.374;0.096;2023-01-10T22:19:51;5.25;;;1.38;;
63959;SDS011;50136;51.374;0.096;2023-01-10T22:29:58;5.95;;;1.40;;
63959;SDS011;50136;51.374;0.096;2023-01-10T22:40:05;4.22;;;1.40;;
63959;SDS011;50136;51.374;0.096;2023-01-10T22:50:12;7.03;;;1.75;;
63959;SDS011;50136;51.374;0.096;2023-01-10T23:00:19;9.00;;;1.92;;
63959;SDS011;50136;51.374;0.096;2023-01-10T23:10:25;5.72;;;1.92;;
63959;SDS011;50136;51.374;0.096;2023-01-10T23:20:31;10.18;;;1.30;;
63959;SDS011;50136;51.374;0.096;2023-01-10T23:30:41;8.80;;;2.05;;
63959;SDS011;50136;51.374;0.096;2023-01-10T23:40:45;7.03;;;2.95;;
63959;SDS011;50136;51.374;0.096;2023-01-10T23:50:49;6.97;;;2.10;;
